Auburn, Washington
Current Conditions -  °F | °C
As of 2:53 AM on Wednesday 26 Nov 2014 (Local Time) from KSEA Reporting Station
Overcast Overcast  
Wind Chill: 13°   Ceiling: 2300
Heat Index: 13°   Visibility: 10mi
Dew Point: 11°   Wind: 10mph
Humidity: 89%   Direction: 190°S
Pressure: 30.19"   Gusts: 20mph
Location:  47.31°N, 122.23°W
Report Text: KSEA 261053Z 19009G17KT 10SM FEW010 BKN023 OVC043 13/11 A3019 RMK AO2 SLP230 T01280111
Loading
Personal Weather Stations






























Interactive Weather Map New forecast layout! Learn more

10-Day Weather Forecast

Advertisements
Track Severe Weather on mobile